KCOT/COT METAR and TAF weather

Enter ICAO airport designator
Station Type Date Time Source
KCOT METAR 2018/04/26 14:53 UTC NOAA

KCOT 261453Z AUTO 08005KT 10SM SCT033 BKN044 OVC065 18/12 A3009 RMK AO2 SLP184 T01780117 50001


Station Type Date Time Source
KCOT Decoded METAR 2018/04/26 14:53 UTC NOAA

COTULLA-LASALLE COUNTY AIRPORT , TX, United States (KCOT) 28-27N 099-13W 140M
Apr 26, 2018 - 10:53 AM EDT / 2018.04.26 1453 UTC
Wind: from the E (080 degrees) at 6 MPH (5 KT):0
Visibility: 10 mile(s):0
Sky conditions: overcast
Temperature: 64.0 F (17.8 C)
Dew Point: 53.1 F (11.7 C)
Relative Humidity: 67%
Pressure (altimeter): 30.09 in. Hg (1018 hPa)
Pressure tendency: 0.00 inches (0.1 hPa) higher than three hours ago
ob: KCOT 261453Z AUTO 08005KT 10SM SCT033 BKN044 OVC065 18/12 A3009 RMK AO2 SLP184 T01780117 50001
cycle: 15

Station Type Date Time Source
KCOT TAF UTC NOAA

Error!


Example: see airport list